Time;durP1;ratioP1;P1;durP2;ratioP2;P2;SDS_P1;SDS_P2;PMS_P1;PMS_P2;Temp;Humidity;BMP_temperature;BMP_pressure;BME280_temperature;BME280_humidity;BME280_pressure;Samples;Min_cycle;Max_cycle;Signal;HPM_P1;HPM_P2
2021/07/21 00:01:32;;;;;;;12.63;9.25;;;;;;;;;;5050905;28;20039;-67
2021/07/21 00:03:58;;;;;;;12.10;9.32;;;;;;;;;;5054381;28;20499;-67
2021/07/21 00:06:24;;;;;;;13.02;10.30;;;;;;;;;;5052729;28;20450;-67
2021/07/21 00:08:50;;;;;;;12.57;10.25;;;;;;;;;;5061627;28;20484;-67
2021/07/21 00:14:08;;;;;;;12.32;9.07;;;;;;;;;;5057570;28;20082;-67
2021/07/21 00:16:37;;;;;;;13.10;10.10;;;;;;;;;;5051082;28;20111;-67
2021/07/21 00:20:07;;;;;;;9.30;8.32;;;;;;;;;;5062147;28;20420;-67
2021/07/21 00:22:01;;;;;;;13.77;10.57;;;;;;;;;;5036496;28;20066;-67
2021/07/21 00:24:27;;;;;;;11.43;9.23;;;;;;;;;;5063799;28;20104;-67
2021/07/21 00:26:53;;;;;;;11.48;9.23;;;;;;;;;;5055808;28;20036;-67
2021/07/21 00:29:19;;;;;;;11.57;9.02;;;;;;;;;;5066131;28;20040;-67
2021/07/21 00:31:46;;;;;;;11.48;9.55;;;;;;;;;;5054283;28;20397;-67
2021/07/21 00:34:12;;;;;;;14.13;9.85;;;;;;;;;;5059319;28;20035;-67
2021/07/21 00:36:38;;;;;;;11.80;9.63;;;;;;;;;;5058030;28;20098;-67
2021/07/21 00:39:04;;;;;;;12.90;10.57;;;;;;;;;;5058258;28;20139;-68
2021/07/21 00:41:31;;;;;;;14.43;10.57;;;;;;;;;;5056076;28;20039;-68
2021/07/21 00:43:57;;;;;;;11.68;9.82;;;;;;;;;;5066885;28;20036;-68
2021/07/21 00:46:23;;;;;;;11.70;9.52;;;;;;;;;;5064334;28;20071;-68
2021/07/21 00:48:49;;;;;;;12.52;8.95;;;;;;;;;;5053639;28;20032;-68
2021/07/21 00:51:17;;;;;;;11.43;8.98;;;;;;;;;;5063408;28;20035;-68
2021/07/21 00:53:44;;;;;;;13.63;9.70;;;;;;;;;;5055286;28;20051;-68
2021/07/21 00:56:10;;;;;;;12.27;9.63;;;;;;;;;;5063390;28;20044;-68
2021/07/21 00:58:36;;;;;;;11.18;9.80;;;;;;;;;;5054503;28;20124;-68
2021/07/21 01:01:02;;;;;;;12.18;9.45;;;;;;;;;;5063721;28;20036;-68
2021/07/21 01:03:29;;;;;;;13.80;10.30;;;;;;;;;;5055408;28;20055;-68
2021/07/21 01:05:55;;;;;;;15.38;10.55;;;;;;;;;;5044986;28;20102;-68
2021/07/21 01:08:22;;;;;;;12.10;10.35;;;;;;;;;;5053160;28;20036;-68
2021/07/21 01:10:52;;;;;;;12.75;10.38;;;;;;;;;;5056498;28;20421;-68
2021/07/21 01:13:26;;;;;;;13.05;10.60;;;;;;;;;;5053566;28;20439;-68
2021/07/21 01:15:59;;;;;;;12.45;10.68;;;;;;;;;;5058065;28;20037;-67
2021/07/21 01:18:46;;;;;;;12.88;11.57;;;;;;;;;;5052157;28;20056;-67
2021/07/21 01:21:26;;;;;;;11.27;9.85;;;;;;;;;;5061228;28;20041;-67
2021/07/21 01:24:14;;;;;;;12.90;10.60;;;;;;;;;;5040720;28;20048;-67
2021/07/21 01:26:56;;;;;;;12.70;10.88;;;;;;;;;;5064134;28;20032;-67
2021/07/21 01:29:24;;;;;;;12.70;10.18;;;;;;;;;;5039506;28;20040;-67
2021/07/21 01:31:53;;;;;;;13.32;10.23;;;;;;;;;;5057384;28;20047;-67
2021/07/21 01:34:20;;;;;;;12.40;11.10;;;;;;;;;;5061978;28;20128;-67
2021/07/21 01:36:50;;;;;;;14.57;11.10;;;;;;;;;;5057447;28;20093;-67
2021/07/21 01:39:17;;;;;;;16.35;11.20;;;;;;;;;;5053823;28;20061;-67
2021/07/21 01:41:47;;;;;;;11.68;9.77;;;;;;;;;;5062808;28;20123;-67
2021/07/21 01:44:16;;;;;;;11.52;9.82;;;;;;;;;;5054746;28;20152;-67
2021/07/21 01:46:43;;;;;;;15.00;10.73;;;;;;;;;;5055885;28;20044;-67
2021/07/21 01:49:11;;;;;;;13.65;10.70;;;;;;;;;;5057166;28;20048;-67
2021/07/21 01:51:37;;;;;;;11.77;10.30;;;;;;;;;;5066887;28;20036;-67
2021/07/21 01:54:04;;;;;;;17.92;12.50;;;;;;;;;;5057091;28;20044;-67
2021/07/21 01:56:32;;;;;;;12.93;10.02;;;;;;;;;;5049471;28;20068;-67
2021/07/21 01:58:59;;;;;;;13.48;10.23;;;;;;;;;;5059226;28;20093;-67
2021/07/21 02:01:29;;;;;;;11.43;10.13;;;;;;;;;;5052891;28;20041;-67
2021/07/21 02:03:57;;;;;;;13.40;11.15;;;;;;;;;;5059221;28;20511;-67
2021/07/21 02:06:24;;;;;;;14.13;11.52;;;;;;;;;;5053217;28;20063;-67
2021/07/21 02:08:51;;;;;;;15.75;12.02;;;;;;;;;;5055449;28;20477;-67
2021/07/21 02:11:17;;;;;;;14.43;11.10;;;;;;;;;;5058369;28;20040;-68
2021/07/21 02:13:43;;;;;;;13.93;11.32;;;;;;;;;;5058070;28;20503;-68
2021/07/21 02:16:10;;;;;;;13.80;10.65;;;;;;;;;;5055391;28;20135;-68
2021/07/21 02:18:37;;;;;;;13.32;11.57;;;;;;;;;;5060203;28;20049;-68
2021/07/21 02:21:04;;;;;;;15.43;12.73;;;;;;;;;;5052076;28;20430;-68
2021/07/21 02:23:31;;;;;;;12.05;10.50;;;;;;;;;;5058526;28;20036;-68
2021/07/21 02:25:58;;;;;;;13.27;10.75;;;;;;;;;;5048222;28;20114;-68
2021/07/21 02:28:24;;;;;;;12.45;10.70;;;;;;;;;;5057052;28;20098;-68
2021/07/21 02:30:52;;;;;;;12.55;10.82;;;;;;;;;;5051578;28;20041;-68
2021/07/21 02:33:23;;;;;;;14.77;11.05;;;;;;;;;;5057537;28;20527;-68
2021/07/21 02:35:49;;;;;;;15.10;12.02;;;;;;;;;;5060781;28;20037;-67
2021/07/21 02:38:16;;;;;;;12.98;11.55;;;;;;;;;;5054779;28;20061;-67
2021/07/21 02:40:43;;;;;;;12.55;11.02;;;;;;;;;;5055268;28;20072;-67
2021/07/21 02:43:09;;;;;;;14.45;12.27;;;;;;;;;;5056437;28;20048;-67
2021/07/21 02:45:35;;;;;;;13.68;11.35;;;;;;;;;;5058009;28;20059;-67
2021/07/21 02:48:03;;;;;;;12.10;10.15;;;;;;;;;;5052026;28;20048;-67
2021/07/21 02:50:29;;;;;;;13.63;10.98;;;;;;;;;;5056942;28;20413;-67
2021/07/21 02:53:01;;;;;;;13.60;11.40;;;;;;;;;;5056243;28;20036;-67
2021/07/21 02:55:33;;;;;;;12.30;10.73;;;;;;;;;;5056016;28;20033;-67
2021/07/21 02:58:17;;;;;;;13.70;11.23;;;;;;;;;;5047155;28;20037;-67
2021/07/21 03:00:43;;;;;;;;;;;;;;;;;;5055298;28;20086;-67
2021/07/21 03:03:12;;;;;;;17.00;12.27;;;;;;;;;;5054286;28;19920;-67
2021/07/21 03:05:38;;;;;;;13.93;11.90;;;;;;;;;;5056034;28;20047;-67
2021/07/21 03:08:05;;;;;;;15.15;12.88;;;;;;;;;;5035132;28;20071;-67
2021/07/21 03:10:32;;;;;;;15.88;13.60;;;;;;;;;;5062025;28;20112;-67
2021/07/21 03:13:03;;;;;;;16.42;13.15;;;;;;;;;;5050642;28;20112;-67
2021/07/21 03:15:31;;;;;;;14.60;12.75;;;;;;;;;;5054200;28;20037;-67
2021/07/21 03:17:58;;;;;;;18.83;13.85;;;;;;;;;;5053598;28;20115;-67
2021/07/21 03:20:24;;;;;;;15.95;12.38;;;;;;;;;;5057319;28;20059;-67
2021/07/21 03:22:54;;;;;;;17.40;13.80;;;;;;;;;;5047505;28;20048;-67
2021/07/21 03:25:22;;;;;;;17.15;14.55;;;;;;;;;;5056790;28;20051;-67
2021/07/21 03:27:50;;;;;;;18.00;13.85;;;;;;;;;;5055562;28;20075;-67
2021/07/21 03:30:17;;;;;;;19.02;14.65;;;;;;;;;;5053009;28;20040;-67
2021/07/21 03:32:44;;;;;;;17.00;13.45;;;;;;;;;;5055562;28;20036;-67
2021/07/21 03:35:11;;;;;;;16.42;13.30;;;;;;;;;;5054787;28;20068;-67
2021/07/21 03:37:40;;;;;;;17.48;13.35;;;;;;;;;;5053630;28;20115;-67
2021/07/21 03:40:07;;;;;;;17.20;12.93;;;;;;;;;;5052019;28;20468;-67
2021/07/21 03:42:34;;;;;;;19.27;14.88;;;;;;;;;;5056493;28;20157;-67
2021/07/21 03:45:01;;;;;;;17.55;14.10;;;;;;;;;;5053220;28;20036;-68
2021/07/21 03:47:28;;;;;;;18.63;15.70;;;;;;;;;;5061755;28;20066;-68
2021/07/21 03:49:54;;;;;;;19.25;14.25;;;;;;;;;;5053882;28;20037;-68
2021/07/21 03:52:21;;;;;;;17.67;14.63;;;;;;;;;;5057016;28;20047;-68
2021/07/21 03:54:47;;;;;;;17.95;14.98;;;;;;;;;;5053400;28;20045;-68
2021/07/21 03:57:17;;;;;;;18.73;15.18;;;;;;;;;;5062983;28;20064;-68
2021/07/21 03:59:44;;;;;;;18.10;14.40;;;;;;;;;;5056275;28;20044;-68
2021/07/21 04:02:10;;;;;;;18.15;15.00;;;;;;;;;;5057736;28;20052;-68
2021/07/21 04:04:40;;;;;;;17.33;13.85;;;;;;;;;;5054947;28;20444;-68
2021/07/21 04:07:08;;;;;;;17.17;14.80;;;;;;;;;;5062384;28;20120;-68
2021/07/21 04:09:35;;;;;;;18.25;15.55;;;;;;;;;;5053795;28;20571;-68
2021/07/21 04:12:02;;;;;;;16.75;15.00;;;;;;;;;;5058370;28;20037;-68
2021/07/21 04:14:32;;;;;;;17.73;14.68;;;;;;;;;;5046300;28;20043;-68
2021/07/21 04:16:59;;;;;;;19.00;14.85;;;;;;;;;;5052687;28;20051;-68
2021/07/21 04:19:25;;;;;;;18.88;15.43;;;;;;;;;;5058617;28;20106;-68
2021/07/21 04:21:53;;;;;;;19.67;15.60;;;;;;;;;;5052931;28;20118;-68
2021/07/21 04:24:22;;;;;;;17.13;14.60;;;;;;;;;;5061942;28;20103;-68
2021/07/21 04:26:48;;;;;;;25.70;17.15;;;;;;;;;;5058447;28;20155;-68
2021/07/21 04:29:16;;;;;;;22.55;17.42;;;;;;;;;;5058235;28;20119;-68
2021/07/21 04:31:46;;;;;;;23.40;17.05;;;;;;;;;;5047026;28;20502;-68
2021/07/21 04:34:12;;;;;;;21.45;17.33;;;;;;;;;;5061420;28;20048;-69
2021/07/21 04:36:39;;;;;;;20.60;16.13;;;;;;;;;;5056615;28;20053;-69
2021/07/21 04:39:06;;;;;;;21.02;16.33;;;;;;;;;;5059007;28;20044;-67
2021/07/21 04:41:33;;;;;;;20.10;16.98;;;;;;;;;;5052243;28;20071;-67
2021/07/21 04:44:01;;;;;;;20.42;16.83;;;;;;;;;;5062798;28;20484;-67
2021/07/21 04:46:28;;;;;;;21.67;16.25;;;;;;;;;;5054212;28;20041;-68
2021/07/21 04:48:54;;;;;;;20.58;16.63;;;;;;;;;;5066575;28;20048;-68
2021/07/21 04:51:22;;;;;;;21.80;17.00;;;;;;;;;;5059920;28;20123;-67
2021/07/21 04:53:52;;;;;;;20.45;15.48;;;;;;;;;;5067395;28;20041;-68
2021/07/21 04:56:18;;;;;;;21.55;17.23;;;;;;;;;;5064510;28;20032;-68
2021/07/21 04:58:44;;;;;;;19.77;16.67;;;;;;;;;;5060419;28;20060;-68
2021/07/21 05:01:14;;;;;;;21.38;16.13;;;;;;;;;;5059753;28;20032;-67
2021/07/21 05:03:41;;;;;;;20.15;17.38;;;;;;;;;;5058295;28;20415;-68
2021/07/21 05:06:08;;;;;;;22.98;16.13;;;;;;;;;;5064307;28;20578;-68
2021/07/21 05:08:34;;;;;;;19.08;15.27;;;;;;;;;;5055685;28;20064;-68
2021/07/21 05:11:01;;;;;;;23.85;17.23;;;;;;;;;;5060928;28;20028;-68
2021/07/21 05:13:29;;;;;;;19.58;15.90;;;;;;;;;;5054436;28;20068;-68
2021/07/21 05:15:56;;;;;;;19.48;15.77;;;;;;;;;;5048492;28;20405;-68
2021/07/21 05:18:22;;;;;;;19.48;16.35;;;;;;;;;;5059835;28;20131;-67
2021/07/21 05:20:48;;;;;;;21.65;16.55;;;;;;;;;;5064026;28;20088;-67
2021/07/21 05:23:14;;;;;;;20.55;16.45;;;;;;;;;;5060014;28;20060;-68
2021/07/21 05:25:40;;;;;;;19.63;15.30;;;;;;;;;;5062675;28;20045;-68
2021/07/21 05:28:10;;;;;;;20.63;16.27;;;;;;;;;;5057180;28;20034;-69
2021/07/21 05:30:36;;;;;;;19.27;15.90;;;;;;;;;;5064114;28;20139;-69
2021/07/21 05:33:03;;;;;;;18.92;15.52;;;;;;;;;;5059576;28;20039;-69
2021/07/21 05:35:29;;;;;;;20.08;15.77;;;;;;;;;;5066303;28;20429;-68
2021/07/21 05:37:56;;;;;;;19.10;15.05;;;;;;;;;;5056779;28;20126;-68
2021/07/21 05:40:23;;;;;;;20.75;16.17;;;;;;;;;;5064084;28;20480;-68
2021/07/21 05:42:49;;;;;;;17.40;15.48;;;;;;;;;;5063054;28;20033;-68
2021/07/21 05:45:16;;;;;;;16.17;14.45;;;;;;;;;;5059174;28;20051;-68
2021/07/21 05:47:42;;;;;;;17.83;14.57;;;;;;;;;;5063670;28;20048;-68
2021/07/21 05:50:09;;;;;;;15.93;13.95;;;;;;;;;;5057597;28;21172;-69
2021/07/21 05:52:35;;;;;;;16.80;14.30;;;;;;;;;;5044060;28;20094;-69
2021/07/21 05:55:01;;;;;;;19.13;14.82;;;;;;;;;;5054834;28;20067;-68
2021/07/21 05:57:29;;;;;;;16.45;14.23;;;;;;;;;;5062790;28;20127;-68
2021/07/21 05:59:55;;;;;;;16.92;14.55;;;;;;;;;;5057161;28;20040;-68
2021/07/21 06:02:22;;;;;;;21.17;14.30;;;;;;;;;;5064277;28;20519;-68
2021/07/21 06:04:48;;;;;;;16.55;13.02;;;;;;;;;;5053626;28;20115;-68
2021/07/21 06:07:14;;;;;;;15.50;13.05;;;;;;;;;;5060972;28;20309;-69
2021/07/21 06:09:41;;;;;;;14.90;12.90;;;;;;;;;;5039632;28;20060;-69
2021/07/21 06:12:07;;;;;;;17.45;12.63;;;;;;;;;;5048665;28;20047;-69
2021/07/21 06:14:34;;;;;;;15.10;12.60;;;;;;;;;;5057779;28;21034;-69
2021/07/21 06:17:00;;;;;;;14.23;12.45;;;;;;;;;;5066845;28;20036;-69
2021/07/21 06:19:29;;;;;;;14.82;12.07;;;;;;;;;;5060462;28;20041;-68
2021/07/21 06:21:58;;;;;;;15.25;12.15;;;;;;;;;;5065658;28;20039;-68
2021/07/21 06:24:27;;;;;;;13.27;11.40;;;;;;;;;;5065247;28;20044;-68
2021/07/21 06:26:53;;;;;;;14.77;11.15;;;;;;;;;;5058510;28;20127;-68
2021/07/21 06:29:19;;;;;;;13.23;10.52;;;;;;;;;;5044900;28;20519;-69
2021/07/21 06:31:45;;;;;;;12.07;10.65;;;;;;;;;;5056883;28;20064;-69
2021/07/21 06:34:12;;;;;;;11.68;9.40;;;;;;;;;;5061605;28;20044;-69
2021/07/21 06:36:38;;;;;;;12.43;10.15;;;;;;;;;;5055461;28;20040;-69
2021/07/21 06:39:04;;;;;;;12.05;9.68;;;;;;;;;;5064975;28;20476;-69
2021/07/21 06:41:30;;;;;;;11.65;9.90;;;;;;;;;;5059988;28;20047;-69
2021/07/21 06:44:00;;;;;;;12.18;9.98;;;;;;;;;;5063365;28;20036;-69
2021/07/21 06:46:26;;;;;;;11.73;10.35;;;;;;;;;;5053440;28;20094;-69
2021/07/21 06:48:53;;;;;;;13.13;9.52;;;;;;;;;;5065355;28;20024;-69
2021/07/21 06:51:19;;;;;;;11.57;8.65;;;;;;;;;;5055855;28;20115;-69
2021/07/21 06:53:46;;;;;;;11.10;8.95;;;;;;;;;;5060130;28;20527;-70
2021/07/21 06:56:12;;;;;;;9.80;8.32;;;;;;;;;;5040078;28;20324;-69
2021/07/21 06:58:38;;;;;;;9.90;8.90;;;;;;;;;;5060810;28;20120;-69
2021/07/21 07:01:04;;;;;;;11.43;9.00;;;;;;;;;;5059050;28;20127;-69
2021/07/21 07:03:31;;;;;;;11.30;9.18;;;;;;;;;;5063611;28;20109;-69
2021/07/21 07:05:57;;;;;;;9.93;8.93;;;;;;;;;;5061112;28;20033;-70
2021/07/21 07:08:23;;;;;;;9.80;8.80;;;;;;;;;;5052913;28;20140;-71
2021/07/21 07:10:50;;;;;;;12.23;9.45;;;;;;;;;;5060615;28;20036;-71
2021/07/21 07:13:16;;;;;;;9.45;8.45;;;;;;;;;;5055086;28;20091;-71
2021/07/21 07:15:44;;;;;;;24.67;10.05;;;;;;;;;;5058020;28;20039;-71
2021/07/21 07:18:14;;;;;;;10.82;8.43;;;;;;;;;;5038380;28;20456;-71
2021/07/21 07:20:44;;;;;;;9.20;7.90;;;;;;;;;;5063319;28;20461;-71
2021/07/21 07:23:10;;;;;;;9.77;8.38;;;;;;;;;;5049546;28;20053;-72
2021/07/21 07:25:37;;;;;;;10.40;7.28;;;;;;;;;;5062437;28;20041;-71
2021/07/21 07:28:04;;;;;;;10.27;7.47;;;;;;;;;;5055098;28;20489;-72
2021/07/21 07:30:30;;;;;;;8.77;7.88;;;;;;;;;;5039475;28;20065;-72
2021/07/21 07:32:56;;;;;;;8.43;7.50;;;;;;;;;;5047047;28;20151;-72
2021/07/21 07:35:22;;;;;;;8.63;6.72;;;;;;;;;;5064812;28;20041;-72
2021/07/21 07:37:48;;;;;;;7.93;6.50;;;;;;;;;;5055829;28;20088;-71
2021/07/21 07:40:14;;;;;;;7.50;6.70;;;;;;;;;;5067946;28;20040;-71
2021/07/21 07:42:41;;;;;;;8.75;7.15;;;;;;;;;;5039397;28;20045;-71
2021/07/21 07:45:07;;;;;;;8.50;6.20;;;;;;;;;;5062815;28;20055;-71
2021/07/21 07:47:33;;;;;;;6.97;6.28;;;;;;;;;;5059586;28;20048;-72
2021/07/21 07:50:06;;;;;;;6.82;6.13;;;;;;;;;;5062244;28;20048;-71
2021/07/21 07:52:33;;;;;;;8.40;6.60;;;;;;;;;;5060354;28;20037;-71
2021/07/21 07:55:00;;;;;;;8.55;6.28;;;;;;;;;;5056851;28;20032;-71
2021/07/21 07:57:26;;;;;;;7.72;6.03;;;;;;;;;;5060545;28;20137;-71
2021/07/21 07:59:52;;;;;;;6.75;6.05;;;;;;;;;;5054610;28;20037;-71
2021/07/21 08:02:18;;;;;;;7.63;6.63;;;;;;;;;;5063217;28;20494;-72
2021/07/21 08:04:44;;;;;;;8.35;7.53;;;;;;;;;;5057317;28;20115;-72
2021/07/21 08:07:10;;;;;;;7.68;6.68;;;;;;;;;;5044241;28;20057;-72
2021/07/21 08:09:37;;;;;;;9.43;6.72;;;;;;;;;;5040813;28;20446;-72
2021/07/21 08:12:04;;;;;;;9.63;6.72;;;;;;;;;;5060065;28;20056;-72
2021/07/21 08:14:30;;;;;;;8.73;7.07;;;;;;;;;;5054002;28;20087;-73
2021/07/21 08:16:56;;;;;;;7.90;6.57;;;;;;;;;;5062507;28;20041;-72
2021/07/21 08:19:23;;;;;;;10.68;6.85;;;;;;;;;;5057223;28;20080;-72
2021/07/21 08:21:50;;;;;;;9.13;6.85;;;;;;;;;;5060267;28;20447;-72
2021/07/21 08:24:16;;;;;;;8.93;7.30;;;;;;;;;;5056731;28;20505;-72
2021/07/21 08:26:43;;;;;;;7.68;6.47;;;;;;;;;;5058580;28;20037;-72
2021/07/21 08:29:09;;;;;;;11.18;6.68;;;;;;;;;;5059487;28;20086;-71
2021/07/21 08:31:36;;;;;;;8.88;7.47;;;;;;;;;;5056912;28;20086;-70
2021/07/21 08:34:02;;;;;;;8.10;7.30;;;;;;;;;;5062708;28;20040;-68
2021/07/21 08:36:36;;;;;;;8.32;7.30;;;;;;;;;;5054296;28;20056;-68
2021/07/21 08:39:04;;;;;;;8.48;7.38;;;;;;;;;;5057031;28;20036;-68
2021/07/21 08:41:31;;;;;;;7.30;6.60;;;;;;;;;;5053011;28;20436;-68
2021/07/21 08:43:57;;;;;;;10.10;7.10;;;;;;;;;;5065391;28;20067;-68
2021/07/21 08:46:23;;;;;;;8.02;7.22;;;;;;;;;;5057739;28;20032;-68
2021/07/21 08:48:50;;;;;;;8.63;6.93;;;;;;;;;;5067490;28;20070;-68
2021/07/21 08:51:17;;;;;;;8.68;6.57;;;;;;;;;;5056021;28;20396;-68
2021/07/21 08:53:43;;;;;;;9.52;7.22;;;;;;;;;;5066272;28;20051;-68
2021/07/21 08:56:10;;;;;;;8.93;8.05;;;;;;;;;;5058894;28;20032;-68
2021/07/21 08:58:36;;;;;;;16.95;7.10;;;;;;;;;;5061572;28;20052;-68
2021/07/21 09:01:03;;;;;;;7.80;7.03;;;;;;;;;;5057922;28;20134;-69
2021/07/21 09:03:31;;;;;;;7.90;7.10;;;;;;;;;;5062104;28;20036;-70
2021/07/21 09:05:57;;;;;;;8.68;6.72;;;;;;;;;;5055740;28;20064;-69
2021/07/21 09:08:23;;;;;;;7.07;6.38;;;;;;;;;;5064181;28;20040;-69
2021/07/21 09:10:49;;;;;;;6.72;6.00;;;;;;;;;;5058839;28;20113;-69
2021/07/21 09:13:17;;;;;;;7.93;7.05;;;;;;;;;;5053420;28;20060;-69
2021/07/21 09:15:43;;;;;;;7.43;6.07;;;;;;;;;;5060033;28;20028;-69
2021/07/21 09:18:13;;;;;;;7.75;6.95;;;;;;;;;;5053716;28;20638;-68
2021/07/21 09:20:44;;;;;;;7.55;6.38;;;;;;;;;;5061714;28;20152;-68
2021/07/21 09:23:10;;;;;;;7.00;6.30;;;;;;;;;;5055928;28;20070;-68
2021/07/21 09:25:38;;;;;;;7.20;5.70;;;;;;;;;;5058356;28;20040;-68
2021/07/21 09:28:08;;;;;;;7.80;6.82;;;;;;;;;;5051718;28;20045;-68
2021/07/21 09:30:37;;;;;;;7.65;6.50;;;;;;;;;;5063241;28;20040;-68
2021/07/21 09:33:13;;;;;;;8.25;7.30;;;;;;;;;;5056487;28;20044;-68
2021/07/21 09:35:43;;;;;;;9.23;6.72;;;;;;;;;;5059082;28;20228;-68
2021/07/21 09:38:14;;;;;;;7.80;7.00;;;;;;;;;;5055136;28;20049;-68
2021/07/21 09:40:48;;;;;;;8.02;6.57;;;;;;;;;;5063570;28;20039;-68
2021/07/21 09:43:16;;;;;;;9.85;7.32;;;;;;;;;;5052133;28;20033;-68
2021/07/21 09:45:42;;;;;;;8.05;7.30;;;;;;;;;;5058072;28;20343;-69
2021/07/21 09:48:09;;;;;;;8.35;6.47;;;;;;;;;;5056649;28;20036;-69
2021/07/21 09:50:36;;;;;;;8.20;7.40;;;;;;;;;;5062691;28;20037;-69
2021/07/21 09:53:06;;;;;;;8.65;7.20;;;;;;;;;;5053130;28;20064;-69
2021/07/21 09:55:34;;;;;;;8.60;7.70;;;;;;;;;;5058879;28;20470;-68
2021/07/21 09:58:00;;;;;;;7.55;6.75;;;;;;;;;;5051356;28;20507;-68
2021/07/21 10:00:34;;;;;;;8.00;7.20;;;;;;;;;;5058773;28;20067;-68
2021/07/21 10:03:06;;;;;;;8.27;7.00;;;;;;;;;;5061838;28;20044;-68
2021/07/21 10:05:32;;;;;;;6.97;6.35;;;;;;;;;;5036333;28;20045;-69
2021/07/21 10:08:02;;;;;;;7.97;6.65;;;;;;;;;;5056791;28;20045;-69
2021/07/21 10:10:29;;;;;;;7.57;6.88;;;;;;;;;;5053867;28;20044;-69
2021/07/21 10:12:59;;;;;;;7.55;6.05;;;;;;;;;;5038178;28;20059;-69
2021/07/21 10:15:26;;;;;;;6.97;6.28;;;;;;;;;;5036132;28;20037;-69
2021/07/21 10:18:06;;;;;;;7.95;7.15;;;;;;;;;;5056496;28;20489;-69
2021/07/21 10:20:32;;;;;;;8.30;6.65;;;;;;;;;;5050656;28;20951;-69
2021/07/21 10:22:58;;;;;;;6.80;6.10;;;;;;;;;;5060465;28;20116;-69
2021/07/21 10:25:26;;;;;;;8.13;7.32;;;;;;;;;;5053127;28;20068;-69
2021/07/21 10:27:53;;;;;;;7.68;6.97;;;;;;;;;;5038969;28;20056;-69
2021/07/21 10:30:20;;;;;;;9.23;7.28;;;;;;;;;;5048851;28;20041;-69
2021/07/21 10:32:46;;;;;;;7.68;6.93;;;;;;;;;;5060873;28;20044;-69
2021/07/21 10:35:12;;;;;;;7.50;6.68;;;;;;;;;;5057308;28;20033;-69
2021/07/21 10:37:38;;;;;;;7.70;6.68;;;;;;;;;;5056266;28;20475;-69
2021/07/21 10:40:08;;;;;;;7.63;6.90;;;;;;;;;;5057017;28;20037;-69
2021/07/21 10:42:34;;;;;;;7.85;7.00;;;;;;;;;;5051085;28;20066;-69
2021/07/21 10:45:17;;;;;;;8.18;6.95;;;;;;;;;;5045284;28;20044;-69
2021/07/21 10:47:45;;;;;;;7.90;7.10;;;;;;;;;;5056023;28;20155;-69
2021/07/21 10:59:12;;;;;;;6.70;6.10;;;;;;;;;;5060225;28;20513;-70
2021/07/21 11:01:45;;;;;;;7.72;6.45;;;;;;;;;;5032156;28;20055;-69
2021/07/21 11:04:11;;;;;;;7.93;7.13;;;;;;;;;;5063086;28;20052;-68
2021/07/21 11:06:37;;;;;;;8.30;6.25;;;;;;;;;;5051522;28;20052;-69
2021/07/21 11:09:16;;;;;;;8.13;6.40;;;;;;;;;;5054805;28;20041;-69
2021/07/21 11:11:42;;;;;;;7.90;7.10;;;;;;;;;;5049776;28;20077;-68
2021/07/21 11:14:16;;;;;;;8.00;7.20;;;;;;;;;;5060006;28;20511;-68
2021/07/21 11:16:46;;;;;;;8.25;7.10;;;;;;;;;;5045087;28;20422;-68
2021/07/21 11:19:51;;;;;;;9.32;6.97;;;;;;;;;;5061084;28;20121;-68
2021/07/21 11:22:20;;;;;;;6.88;6.28;;;;;;;;;;4972381;28;20134;-68
2021/07/21 11:25:04;;;;;;;7.05;6.35;;;;;;;;;;4981474;28;20135;-69
2021/07/21 11:27:37;;;;;;;7.03;6.32;;;;;;;;;;5017867;28;20033;-69
2021/07/21 11:30:03;;;;;;;6.95;6.15;;;;;;;;;;5054777;28;20037;-69
2021/07/21 11:32:30;;;;;;;7.03;6.32;;;;;;;;;;5047326;28;20099;-69
2021/07/21 11:34:57;;;;;;;7.45;6.72;;;;;;;;;;5058404;28;20052;-69
2021/07/21 11:37:27;;;;;;;8.32;6.53;;;;;;;;;;5048349;28;20037;-69
2021/07/21 11:39:54;;;;;;;8.35;6.75;;;;;;;;;;5056787;28;20106;-69
2021/07/21 11:42:25;;;;;;;7.97;7.10;;;;;;;;;;5051647;28;20127;-69
2021/07/21 11:44:52;;;;;;;7.28;6.68;;;;;;;;;;5057448;28;20488;-69
2021/07/21 11:47:18;;;;;;;7.88;7.07;;;;;;;;;;5050827;28;20390;-69
2021/07/21 11:49:51;;;;;;;7.53;6.57;;;;;;;;;;5052923;28;20044;-69
2021/07/21 11:52:19;;;;;;;7.00;6.40;;;;;;;;;;5058626;28;20039;-69
2021/07/21 11:54:45;;;;;;;9.48;7.70;;;;;;;;;;5058030;28;20044;-69
2021/07/21 11:57:11;;;;;;;7.68;6.97;;;;;;;;;;5052234;28;20440;-69
2021/07/21 11:59:39;;;;;;;7.30;6.60;;;;;;;;;;5050679;28;20036;-69
2021/07/21 12:02:12;;;;;;;8.40;7.32;;;;;;;;;;5056092;28;20044;-68
2021/07/21 12:04:40;;;;;;;7.88;7.07;;;;;;;;;;5052139;28;20049;-68
2021/07/21 12:07:07;;;;;;;8.45;6.90;;;;;;;;;;5060682;28;20036;-68
2021/07/21 12:09:34;;;;;;;7.88;7.13;;;;;;;;;;5051486;28;20568;-68
2021/07/21 12:12:05;;;;;;;7.22;5.80;;;;;;;;;;5059622;28;20373;-67
2021/07/21 12:14:31;;;;;;;8.40;7.13;;;;;;;;;;5060326;28;20044;-68
2021/07/21 12:17:10;;;;;;;9.85;7.43;;;;;;;;;;5058833;28;20053;-68
2021/07/21 12:19:37;;;;;;;7.93;6.72;;;;;;;;;;5053620;28;20063;-68
2021/07/21 12:22:04;;;;;;;7.30;6.60;;;;;;;;;;5059017;28;20041;-67
2021/07/21 12:24:41;;;;;;;8.27;7.57;;;;;;;;;;5060684;28;20398;-67
2021/07/21 12:27:08;;;;;;;7.53;6.72;;;;;;;;;;5061300;28;20342;-69
2021/07/21 12:29:34;;;;;;;7.80;6.95;;;;;;;;;;5056968;28;20044;-69
2021/07/21 12:32:08;;;;;;;8.00;6.28;;;;;;;;;;5058305;28;20036;-68
2021/07/21 12:34:35;;;;;;;7.18;6.47;;;;;;;;;;5055545;28;20045;-73
2021/07/21 12:37:01;;;;;;;8.02;7.22;;;;;;;;;;5056771;28;20048;-75
2021/07/21 12:39:28;;;;;;;7.90;6.20;;;;;;;;;;5051283;28;20056;-71
2021/07/21 12:41:55;;;;;;;10.73;6.53;;;;;;;;;;5065875;28;20128;-68
2021/07/21 12:44:26;;;;;;;11.43;6.70;;;;;;;;;;5061881;28;20044;-69
2021/07/21 12:47:09;;;;;;;10.20;7.43;;;;;;;;;;5064226;28;20041;-67
2021/07/21 12:49:35;;;;;;;12.23;6.82;;;;;;;;;;5059123;28;20221;-67
2021/07/21 12:52:01;;;;;;;6.85;6.13;;;;;;;;;;5065093;28;20059;-66
2021/07/21 12:54:27;;;;;;;7.72;6.60;;;;;;;;;;5062897;28;20477;-72
2021/07/21 12:56:53;;;;;;;8.45;6.30;;;;;;;;;;5056589;28;20033;-72
2021/07/21 12:59:19;;;;;;;14.25;7.07;;;;;;;;;;5059178;28;20037;-72
2021/07/21 13:01:45;;;;;;;8.68;7.15;;;;;;;;;;5054491;28;20047;-72
2021/07/21 13:04:12;;;;;;;7.35;6.55;;;;;;;;;;5057892;28;20032;-72
2021/07/21 13:06:38;;;;;;;8.10;6.90;;;;;;;;;;5036684;28;20033;-71
2021/07/21 13:09:07;;;;;;;7.72;6.93;;;;;;;;;;5061937;28;20481;-69
2021/07/21 13:11:34;;;;;;;7.65;6.85;;;;;;;;;;5056604;28;20052;-69
2021/07/21 13:14:00;;;;;;;10.57;7.88;;;;;;;;;;5060232;28;20488;-69
2021/07/21 13:16:31;;;;;;;10.10;7.65;;;;;;;;;;5051559;28;20029;-70
2021/07/21 13:19:02;;;;;;;7.82;6.93;;;;;;;;;;5063923;28;20045;-70
2021/07/21 13:21:36;;;;;;;8.85;7.95;;;;;;;;;;5036743;28;20044;-70
2021/07/21 13:24:05;;;;;;;8.85;7.43;;;;;;;;;;5057344;28;20035;-70
2021/07/21 13:26:31;;;;;;;9.27;7.43;;;;;;;;;;5049252;28;20089;-70
2021/07/21 13:28:59;;;;;;;7.95;6.88;;;;;;;;;;5064217;28;20066;-70
2021/07/21 13:31:27;;;;;;;8.80;6.75;;;;;;;;;;5052769;28;20053;-71
2021/07/21 13:33:57;;;;;;;10.07;7.10;;;;;;;;;;5067422;28;20033;-70
2021/07/21 13:36:40;;;;;;;7.55;6.80;;;;;;;;;;5056078;28;20041;-70
2021/07/21 13:39:06;;;;;;;8.77;7.07;;;;;;;;;;5064074;28;20123;-70
2021/07/21 13:41:34;;;;;;;6.97;6.28;;;;;;;;;;5060811;28;20148;-70
2021/07/21 13:44:01;;;;;;;8.10;6.50;;;;;;;;;;5063150;28;20045;-70
2021/07/21 13:46:29;;;;;;;8.32;6.93;;;;;;;;;;5061096;28;20044;-70
2021/07/21 13:49:06;;;;;;;7.22;6.53;;;;;;;;;;5053938;28;20044;-70
2021/07/21 13:51:42;;;;;;;7.28;6.53;;;;;;;;;;5064448;28;20400;-69
2021/07/21 13:54:09;;;;;;;8.52;6.72;;;;;;;;;;5056533;28;20404;-70
2021/07/21 13:56:36;;;;;;;7.28;6.47;;;;;;;;;;5060536;28;20151;-70
2021/07/21 13:59:03;;;;;;;8.65;6.63;;;;;;;;;;5054909;28;20480;-70
2021/07/21 14:01:29;;;;;;;8.18;6.25;;;;;;;;;;5061623;28;20099;-70
2021/07/21 14:03:59;;;;;;;8.20;7.10;;;;;;;;;;5054366;28;20051;-70
2021/07/21 14:06:26;;;;;;;8.52;7.03;;;;;;;;;;5060714;28;20504;-70
2021/07/21 14:08:52;;;;;;;10.38;7.15;;;;;;;;;;5053440;28;20060;-70
2021/07/21 14:11:18;;;;;;;8.57;7.28;;;;;;;;;;5055313;28;20049;-70
2021/07/21 14:13:44;;;;;;;7.85;6.97;;;;;;;;;;5059442;28;20565;-70
2021/07/21 14:16:10;;;;;;;9.40;6.90;;;;;;;;;;5056172;28;20094;-70
2021/07/21 14:18:36;;;;;;;8.40;6.68;;;;;;;;;;5054813;28;20049;-70
2021/07/21 14:21:03;;;;;;;8.48;7.40;;;;;;;;;;5057091;28;20045;-70
2021/07/21 14:23:29;;;;;;;8.85;6.88;;;;;;;;;;5054227;28;20099;-68
2021/07/21 14:25:56;;;;;;;7.97;7.18;;;;;;;;;;5060601;28;20469;-68
2021/07/21 14:28:22;;;;;;;7.88;7.07;;;;;;;;;;5050815;28;20048;-68
2021/07/21 14:30:48;;;;;;;7.85;7.05;;;;;;;;;;5060516;28;20045;-70
2021/07/21 14:33:15;;;;;;;9.73;6.93;;;;;;;;;;5066005;28;20035;-70
2021/07/21 14:35:42;;;;;;;7.65;6.80;;;;;;;;;;5058399;28;20040;-70
2021/07/21 14:38:08;;;;;;;11.77;7.28;;;;;;;;;;5062086;28;20135;-70
2021/07/21 14:40:34;;;;;;;8.15;6.63;;;;;;;;;;5054618;28;20086;-71
2021/07/21 14:43:00;;;;;;;8.57;7.22;;;;;;;;;;5063060;28;20094;-65
2021/07/21 14:45:26;;;;;;;7.50;6.75;;;;;;;;;;5054082;28;20056;-67
2021/07/21 14:47:52;;;;;;;8.80;7.10;;;;;;;;;;5046071;28;20469;-67